createdAt,value
2017-08-27T00:00:36.587Z,75.30
2017-08-27T00:03:04.361Z,65.28
2017-08-27T00:05:32.103Z,61.65
2017-08-27T00:07:59.905Z,60.30
2017-08-27T00:10:27.640Z,62.55
2017-08-27T00:12:55.378Z,58.87
2017-08-27T00:15:23.156Z,55.47
2017-08-27T00:17:50.896Z,60.95
2017-08-27T00:20:18.699Z,54.53
2017-08-27T00:22:46.440Z,59.08
2017-08-27T00:25:14.179Z,61.53
2017-08-27T00:27:41.955Z,66.22
2017-08-27T00:30:09.692Z,67.12
2017-08-27T00:32:37.483Z,59.72
2017-08-27T00:35:05.227Z,64.68
2017-08-27T00:37:32.978Z,66.15
2017-08-27T00:40:00.758Z,69.68
2017-08-27T00:42:28.503Z,62.30
2017-08-27T00:44:56.312Z,71.82
2017-08-27T00:47:24.055Z,67.50
2017-08-27T00:49:51.793Z,63.25
2017-08-27T00:52:19.579Z,58.15
2017-08-27T00:54:47.315Z,60.22
2017-08-27T00:57:15.115Z,59.67
2017-08-27T00:59:42.861Z,58.80
2017-08-27T01:02:10.605Z,58.30
2017-08-27T01:04:38.378Z,57.67
2017-08-27T01:07:06.147Z,58.95
2017-08-27T01:09:33.947Z,59.97
2017-08-27T01:12:01.687Z,58.90
2017-08-27T01:27:31.607Z,57.88
2017-08-27T01:29:59.358Z,51.90
2017-08-27T01:32:27.114Z,53.75
2017-08-27T01:34:54.847Z,50.47
2017-08-27T01:37:22.603Z,58.33
2017-08-27T01:39:50.336Z,62.33
2017-08-27T01:42:18.065Z,62.33
2017-08-27T01:44:45.828Z,53.95
2017-08-27T01:47:13.559Z,59.03
2017-08-27T01:49:41.286Z,59.35
2017-08-27T01:52:09.045Z,58.95
2017-08-27T01:54:36.782Z,77.95
2017-08-27T01:57:04.523Z,67.87
2017-08-27T01:59:32.284Z,63.42
2017-08-27T02:02:00.015Z,59.58
2017-08-27T02:04:27.800Z,66.80
2017-08-27T02:06:55.569Z,57.50
2017-08-27T02:09:23.308Z,61.90
2017-08-27T02:11:51.073Z,59.53
2017-08-27T02:14:18.799Z,61.63
2017-08-27T02:16:46.583Z,59.92
2017-08-27T02:19:14.312Z,64.80
2017-08-27T02:21:42.808Z,73.22
2017-08-27T02:24:10.568Z,73.05
2017-08-27T02:26:38.296Z,62.20
2017-08-27T02:29:06.116Z,71.25
2017-08-27T02:31:33.852Z,62.28
2017-08-27T02:34:01.584Z,59.40
2017-08-27T02:36:29.343Z,59.85
2017-08-27T02:38:57.072Z,65.75
2017-08-27T02:41:24.860Z,68.12
2017-08-27T02:43:52.591Z,69.18
2017-08-27T02:46:20.333Z,77.53
2017-08-27T02:48:48.091Z,68.43
2017-08-27T02:51:15.823Z,76.18
2017-08-27T02:53:43.612Z,70.05
2017-08-27T02:56:11.343Z,66.70
2017-08-27T02:58:39.076Z,65.18
2017-08-27T03:01:06.836Z,64.45
2017-08-27T03:03:34.571Z,67.28
2017-08-27T03:06:02.360Z,60.65
2017-08-27T03:08:30.100Z,66.15
2017-08-27T03:10:57.824Z,61.67
2017-08-27T03:13:25.584Z,70.10
2017-08-27T03:15:53.323Z,73.40
2017-08-27T03:18:21.116Z,67.37
2017-08-27T03:20:48.849Z,66.70
2017-08-27T03:23:16.579Z,67.15
2017-08-27T03:25:44.340Z,62.38
2017-08-27T03:28:12.068Z,64.28
2017-08-27T03:30:39.861Z,62.00
2017-08-27T03:33:07.599Z,60.15
2017-08-27T03:35:35.335Z,61.05
2017-08-27T03:38:03.095Z,68.47
2017-08-27T03:40:30.827Z,56.95
2017-08-27T03:42:58.615Z,62.70
2017-08-27T03:45:26.350Z,57.17
2017-08-27T03:47:54.083Z,54.65
2017-08-27T03:50:21.849Z,62.30
2017-08-27T03:52:49.583Z,59.05
2017-08-27T03:55:17.367Z,58.40
2017-08-27T03:57:45.098Z,51.83
2017-08-27T04:00:12.828Z,56.75
2017-08-27T04:02:40.595Z,48.87
2017-08-27T04:05:08.337Z,47.20
2017-08-27T04:07:36.120Z,42.85
2017-08-27T04:10:03.866Z,45.92
2017-08-27T04:12:31.606Z,46.33
2017-08-27T04:14:59.363Z,49.08
2017-08-27T04:17:27.091Z,41.92
2017-08-27T04:19:54.876Z,41.05
2017-08-27T04:22:22.623Z,40.58
2017-08-27T04:24:50.360Z,36.45
2017-08-27T04:27:18.114Z,36.17
2017-08-27T04:29:45.852Z,32.53
2017-08-27T04:32:13.639Z,34.80
2017-08-27T04:34:41.376Z,32.05
2017-08-27T04:37:09.123Z,30.80
2017-08-27T04:39:36.892Z,30.12
2017-08-27T04:42:04.663Z,29.05
2017-08-27T04:44:32.446Z,28.42
2017-08-27T04:47:00.213Z,29.98
2017-08-27T04:49:27.975Z,26.92
2017-08-27T04:51:55.740Z,28.90
2017-08-27T04:54:23.467Z,27.15
2017-08-27T04:56:51.263Z,25.70
2017-08-27T04:59:18.993Z,24.10
2017-08-27T05:01:46.734Z,25.05
2017-08-27T05:04:14.492Z,24.45
2017-08-27T05:06:42.227Z,19.48
2017-08-27T05:09:10.008Z,20.52
2017-08-27T05:11:37.742Z,18.92
2017-08-27T05:14:05.468Z,18.00
2017-08-27T05:16:33.228Z,17.05
2017-08-27T05:19:00.961Z,16.65
2017-08-27T05:21:28.744Z,15.35
2017-08-27T05:23:56.476Z,15.63
2017-08-27T05:26:24.213Z,13.68
2017-08-27T05:28:51.976Z,12.27
2017-08-27T05:31:19.703Z,11.55
2017-08-27T05:33:47.482Z,10.95
2017-08-27T05:36:15.202Z,9.85
2017-08-27T05:38:42.923Z,9.63
2017-08-27T05:41:10.670Z,9.30
2017-08-27T05:43:38.395Z,9.20
2017-08-27T05:46:06.179Z,8.45
2017-08-27T05:48:33.915Z,9.52
2017-08-27T05:51:01.639Z,9.35
2017-08-27T05:53:29.397Z,8.15
2017-08-27T05:55:57.114Z,8.52
2017-08-27T05:58:24.932Z,8.50
2017-08-27T06:00:52.651Z,8.90
2017-08-27T06:03:20.377Z,8.73
2017-08-27T06:05:48.142Z,8.50
2017-08-27T06:08:15.891Z,8.10
2017-08-27T06:10:44.048Z,7.72
2017-08-27T06:13:12.676Z,8.57
2017-08-27T06:15:40.408Z,7.78
2017-08-27T06:18:08.217Z,7.82
2017-08-27T06:20:35.947Z,7.40
2017-08-27T06:23:03.735Z,8.23
2017-08-27T06:25:31.465Z,8.57
2017-08-27T06:27:59.199Z,9.20
2017-08-27T06:30:26.960Z,7.60
2017-08-27T06:32:54.695Z,8.53
2017-08-27T06:35:22.789Z,7.90
2017-08-27T06:37:50.538Z,9.20
2017-08-27T06:40:18.263Z,7.33
2017-08-27T06:42:46.051Z,8.10
2017-08-27T06:45:13.776Z,7.30
2017-08-27T06:47:41.587Z,8.70
2017-08-27T06:50:09.328Z,10.27
2017-08-27T06:52:37.055Z,9.13
2017-08-27T06:55:04.821Z,8.90
2017-08-27T06:57:32.608Z,9.77
2017-08-27T07:00:00.396Z,9.00
2017-08-27T07:02:28.124Z,10.00
2017-08-27T07:04:55.850Z,9.57
2017-08-27T07:07:23.611Z,9.80
2017-08-27T07:09:51.351Z,11.13
2017-08-27T07:12:19.139Z,9.67
2017-08-27T07:14:46.895Z,11.00
2017-08-27T07:17:14.622Z,11.50
2017-08-27T07:19:42.375Z,9.73
2017-08-27T07:22:10.104Z,10.93
2017-08-27T07:24:37.887Z,10.43
2017-08-27T07:27:05.618Z,10.33
2017-08-27T07:29:33.351Z,10.10
2017-08-27T07:32:01.116Z,9.97
2017-08-27T07:34:28.848Z,10.57
2017-08-27T07:36:56.631Z,10.50
2017-08-27T07:39:24.351Z,10.03
2017-08-27T07:41:52.083Z,11.30
2017-08-27T07:44:20.014Z,12.73
2017-08-27T07:46:47.761Z,10.93
2017-08-27T07:49:15.547Z,12.53
2017-08-27T07:51:43.283Z,14.90
2017-08-27T07:54:11.063Z,11.60
2017-08-27T07:56:38.887Z,11.40
2017-08-27T07:59:06.616Z,13.60
2017-08-27T08:01:34.415Z,13.20
2017-08-27T08:04:02.166Z,15.00
2017-08-27T08:06:29.918Z,14.65
2017-08-27T08:08:57.680Z,13.35
2017-08-27T08:11:25.412Z,14.15
2017-08-27T08:13:53.191Z,12.80
2017-08-27T08:16:20.911Z,12.10
2017-08-27T08:18:48.640Z,14.13
2017-08-27T08:21:16.413Z,11.70
2017-08-27T08:23:44.167Z,12.00
2017-08-27T08:26:12.091Z,11.63
2017-08-27T08:28:39.871Z,12.32
2017-08-27T08:31:07.606Z,13.82
2017-08-27T08:33:35.371Z,11.43
2017-08-27T08:36:03.147Z,12.18
2017-08-27T08:38:32.159Z,11.30
2017-08-27T08:40:59.927Z,11.48
2017-08-27T08:43:27.667Z,11.70
2017-08-27T08:45:55.450Z,12.95
2017-08-27T08:48:23.214Z,15.75
2017-08-27T08:50:51.019Z,12.18
2017-08-27T08:53:18.755Z,11.57
2017-08-27T08:55:46.492Z,10.88
2017-08-27T08:58:14.261Z,10.45
2017-08-27T09:00:43.495Z,11.10
2017-08-27T09:03:11.292Z,12.90
2017-08-27T09:05:39.027Z,12.27
2017-08-27T09:08:06.762Z,11.43
2017-08-27T09:10:34.528Z,12.65
2017-08-27T09:13:02.261Z,11.65
2017-08-27T09:15:30.058Z,11.73
2017-08-27T09:17:57.792Z,10.33
2017-08-27T09:20:25.524Z,9.90
2017-08-27T09:22:53.287Z,10.53
2017-08-27T09:25:21.016Z,9.67
2017-08-27T09:27:48.808Z,10.73
2017-08-27T09:30:16.552Z,10.27
2017-08-27T09:32:44.287Z,14.75
2017-08-27T09:35:12.188Z,11.82
2017-08-27T09:37:39.920Z,10.63
2017-08-27T09:40:07.714Z,13.07
2017-08-27T09:42:35.457Z,15.30
2017-08-27T09:45:03.295Z,11.32
2017-08-27T09:47:31.057Z,11.12
2017-08-27T09:49:58.795Z,10.05
2017-08-27T09:52:26.588Z,12.82
2017-08-27T09:54:54.320Z,12.60
2017-08-27T09:57:22.049Z,12.43
2017-08-27T09:59:49.916Z,12.90
2017-08-27T10:02:17.643Z,11.65
2017-08-27T10:04:45.480Z,11.85
2017-08-27T10:07:13.207Z,13.57
2017-08-27T10:09:40.940Z,10.35
2017-08-27T10:12:08.691Z,11.55
2017-08-27T10:14:36.424Z,11.20
2017-08-27T10:17:04.215Z,10.93
2017-08-27T10:19:31.944Z,9.30
2017-08-27T10:21:59.667Z,10.10
2017-08-27T10:24:27.417Z,9.85
2017-08-27T10:26:55.148Z,9.43
2017-08-27T10:29:22.936Z,8.23
2017-08-27T10:31:50.678Z,7.25
2017-08-27T10:34:18.408Z,7.93
2017-08-27T10:36:46.179Z,8.93
2017-08-27T10:39:13.923Z,8.48
2017-08-27T10:41:41.712Z,6.90
2017-08-27T10:44:09.432Z,7.55
2017-08-27T10:46:37.150Z,6.65
2017-08-27T10:49:04.944Z,7.55
2017-08-27T10:51:32.672Z,6.60
2017-08-27T10:54:00.451Z,7.18
2017-08-27T10:56:28.184Z,5.05
2017-08-27T10:58:55.907Z,5.55
2017-08-27T11:01:23.664Z,5.70
2017-08-27T11:03:51.393Z,5.60
2017-08-27T11:06:19.180Z,4.93
2017-08-27T11:08:46.931Z,5.40
2017-08-27T11:11:14.670Z,6.07
2017-08-27T11:13:42.424Z,4.87
2017-08-27T11:16:10.148Z,5.45
2017-08-27T11:18:37.932Z,5.20
2017-08-27T11:21:05.655Z,5.22
2017-08-27T11:23:34.417Z,5.72
2017-08-27T11:26:02.175Z,6.55
2017-08-27T11:28:29.897Z,7.72
2017-08-27T11:30:57.688Z,6.05
2017-08-27T11:33:25.412Z,4.82
2017-08-27T11:35:53.145Z,5.78
2017-08-27T11:38:20.925Z,5.70
2017-08-27T11:40:48.651Z,6.00
2017-08-27T11:43:16.436Z,8.02
2017-08-27T11:45:44.163Z,5.62
2017-08-27T11:48:11.891Z,8.93
2017-08-27T11:50:39.647Z,7.10
2017-08-27T11:53:07.411Z,7.10
2017-08-27T11:55:35.200Z,7.05
2017-08-27T11:58:02.931Z,6.68
2017-08-27T12:00:30.663Z,6.60
2017-08-27T12:02:58.416Z,7.40
2017-08-27T12:05:26.136Z,7.43
2017-08-27T12:07:53.916Z,7.40
2017-08-27T12:10:21.647Z,6.18
2017-08-27T12:12:49.371Z,6.72
2017-08-27T12:15:17.128Z,6.47
2017-08-27T12:17:44.936Z,7.30
2017-08-27T12:20:12.754Z,7.15
2017-08-27T12:22:40.478Z,6.40
2017-08-27T12:25:08.210Z,6.65
2017-08-27T12:27:35.960Z,6.62
2017-08-27T12:30:03.693Z,7.80
2017-08-27T12:32:31.482Z,8.82
2017-08-27T12:34:59.202Z,7.65
2017-08-27T12:37:26.932Z,6.87
2017-08-27T12:39:54.691Z,6.40
2017-08-27T12:42:22.446Z,6.82
2017-08-27T12:44:50.225Z,6.62
2017-08-27T12:47:17.949Z,7.70
2017-08-27T12:49:45.671Z,6.37
2017-08-27T12:52:13.424Z,6.90
2017-08-27T12:54:41.143Z,5.30
2017-08-27T12:57:08.932Z,5.70
2017-08-27T12:59:36.662Z,8.00
2017-08-27T13:02:04.382Z,5.85
2017-08-27T13:04:32.130Z,5.72
2017-08-27T13:06:59.854Z,5.72
2017-08-27T13:09:27.640Z,5.37
2017-08-27T13:11:55.368Z,5.80
2017-08-27T13:14:23.119Z,5.85
2017-08-27T13:16:50.880Z,4.75
2017-08-27T13:19:18.608Z,6.65
2017-08-27T13:21:46.448Z,6.62
2017-08-27T13:24:14.188Z,5.40
2017-08-27T13:26:41.916Z,5.75
2017-08-27T13:29:09.675Z,5.32
2017-08-27T13:31:37.395Z,6.05
2017-08-27T13:34:05.176Z,6.53
2017-08-27T13:36:32.907Z,7.32
2017-08-27T13:39:00.635Z,5.30
2017-08-27T13:41:28.395Z,5.20
2017-08-27T13:43:56.133Z,4.57
2017-08-27T13:46:23.920Z,6.07
2017-08-27T13:48:51.645Z,5.07
2017-08-27T13:51:19.380Z,5.43
2017-08-27T13:53:47.137Z,4.53
2017-08-27T13:56:14.863Z,5.78
2017-08-27T13:58:42.651Z,5.22
2017-08-27T14:01:10.385Z,5.40
2017-08-27T14:03:38.185Z,5.35
2017-08-27T14:06:05.937Z,4.82
2017-08-27T14:08:33.670Z,5.22
2017-08-27T14:11:01.475Z,5.55
2017-08-27T14:13:29.204Z,5.22
2017-08-27T14:15:56.936Z,5.25
2017-08-27T14:18:25.546Z,5.68
2017-08-27T14:20:53.279Z,5.12
2017-08-27T14:23:21.073Z,5.93
2017-08-27T14:25:48.811Z,4.57
2017-08-27T14:28:16.536Z,4.20
2017-08-27T14:30:44.298Z,4.68
2017-08-27T14:33:12.019Z,4.90
2017-08-27T14:35:39.817Z,4.82
2017-08-27T14:38:07.551Z,4.78
2017-08-27T14:40:35.271Z,4.60
2017-08-27T14:43:03.075Z,5.30
2017-08-27T14:45:30.799Z,4.72
2017-08-27T14:47:58.556Z,4.62
2017-08-27T14:50:26.283Z,4.75
2017-08-27T14:52:54.071Z,3.92
2017-08-27T14:55:21.795Z,5.55
2017-08-27T14:57:49.525Z,4.72
2017-08-27T15:00:17.279Z,5.05
2017-08-27T15:02:45.003Z,5.32
2017-08-27T15:05:12.787Z,4.72
2017-08-27T15:07:40.511Z,4.68
2017-08-27T15:10:08.235Z,4.90
2017-08-27T15:12:35.988Z,4.82
2017-08-27T15:15:03.712Z,3.58
2017-08-27T15:17:31.513Z,4.30
2017-08-27T15:19:59.276Z,4.45
2017-08-27T15:22:27.000Z,4.60
2017-08-27T15:24:54.750Z,4.43
2017-08-27T15:27:22.471Z,4.47
2017-08-27T15:29:50.260Z,4.60
2017-08-27T15:32:17.980Z,4.85
2017-08-27T15:34:45.700Z,4.50
2017-08-27T15:37:13.457Z,5.20
2017-08-27T15:39:41.185Z,4.50
2017-08-27T15:42:08.969Z,3.80
2017-08-27T15:44:36.696Z,4.00
2017-08-27T15:47:04.419Z,7.40
2017-08-27T15:49:32.183Z,6.65
2017-08-27T15:51:59.909Z,4.72
2017-08-27T15:54:27.687Z,4.57
2017-08-27T15:56:55.421Z,4.10
2017-08-27T15:59:23.158Z,4.53
2017-08-27T16:01:50.910Z,6.62
2017-08-27T16:04:22.502Z,4.00
2017-08-27T16:07:00.559Z,5.43
2017-08-27T16:09:28.291Z,5.25
2017-08-27T16:11:56.072Z,4.68
2017-08-27T16:14:23.796Z,4.87
2017-08-27T16:16:51.533Z,4.53
2017-08-27T16:19:19.303Z,4.45
2017-08-27T16:21:47.032Z,4.45
2017-08-27T16:24:15.223Z,4.57
2017-08-27T16:26:43.204Z,5.45
2017-08-27T16:29:10.975Z,4.90
2017-08-27T16:31:38.734Z,3.78
2017-08-27T16:34:06.477Z,5.10
2017-08-27T16:36:34.292Z,5.23
2017-08-27T16:39:02.018Z,6.80
2017-08-27T16:41:29.752Z,6.10
2017-08-27T16:43:57.511Z,5.12
2017-08-27T16:46:25.268Z,4.50
2017-08-27T16:48:53.019Z,4.78
2017-08-27T16:51:20.737Z,4.45
2017-08-27T16:53:48.525Z,5.28
2017-08-27T16:56:16.251Z,7.43
2017-08-27T16:58:43.976Z,6.93
2017-08-27T17:01:11.735Z,6.18
2017-08-27T17:03:39.455Z,4.35
2017-08-27T17:06:07.240Z,4.37
2017-08-27T17:08:34.970Z,4.18
2017-08-27T17:11:02.699Z,11.43
2017-08-27T17:13:30.459Z,4.37
2017-08-27T17:15:58.244Z,4.25
2017-08-27T17:18:26.085Z,5.40
2017-08-27T17:20:54.563Z,4.47
2017-08-27T17:23:22.319Z,4.65
2017-08-27T17:25:50.110Z,5.32
2017-08-27T17:28:17.965Z,4.72
2017-08-27T17:30:45.777Z,6.10
2017-08-27T17:33:13.532Z,5.40
2017-08-27T17:35:41.265Z,5.30
2017-08-27T17:38:09.032Z,5.85
2017-08-27T17:40:36.765Z,4.70
2017-08-27T17:43:04.556Z,5.87
2017-08-27T17:45:32.287Z,4.72
2017-08-27T17:48:00.017Z,5.07
2017-08-27T17:50:27.776Z,4.22
2017-08-27T17:52:55.531Z,5.00
2017-08-27T17:55:24.028Z,4.68
2017-08-27T17:57:51.768Z,4.45
2017-08-27T18:00:19.584Z,4.03
2017-08-27T18:02:48.847Z,5.47
2017-08-27T18:05:17.016Z,5.15
2017-08-27T18:07:44.801Z,5.37
2017-08-27T18:10:12.535Z,4.50
2017-08-27T18:12:40.272Z,4.18
2017-08-27T18:15:08.035Z,4.75
2017-08-27T18:17:35.760Z,4.60
2017-08-27T18:20:03.560Z,6.97
2017-08-27T18:22:31.293Z,4.37
2017-08-27T18:24:59.015Z,5.78
2017-08-27T18:27:26.781Z,4.43
2017-08-27T18:29:54.506Z,5.00
2017-08-27T18:32:22.297Z,4.10
2017-08-27T18:34:50.039Z,3.83
2017-08-27T18:37:17.796Z,6.00
2017-08-27T18:39:45.556Z,5.35
2017-08-27T18:42:13.284Z,9.02
2017-08-27T18:44:41.070Z,4.70
2017-08-27T18:47:08.795Z,7.10
2017-08-27T18:49:36.525Z,4.75
2017-08-27T18:52:04.284Z,5.57
2017-08-27T18:54:32.007Z,5.12
2017-08-27T18:56:59.801Z,5.47
2017-08-27T18:59:27.684Z,4.78
2017-08-27T19:01:55.414Z,4.22
2017-08-27T19:04:23.169Z,4.07
2017-08-27T19:06:51.989Z,5.75
2017-08-27T19:09:19.788Z,4.40
2017-08-27T19:11:47.624Z,4.68
2017-08-27T19:14:15.495Z,4.68
2017-08-27T19:16:43.291Z,4.60
2017-08-27T19:19:11.019Z,5.22
2017-08-27T19:21:38.811Z,5.55
2017-08-27T19:24:06.559Z,4.25
2017-08-27T19:26:34.288Z,5.62
2017-08-27T19:29:02.064Z,4.90
2017-08-27T19:31:29.791Z,5.30
2017-08-27T19:33:57.656Z,5.60
2017-08-27T19:36:25.520Z,8.85
2017-08-27T19:38:54.214Z,5.15
2017-08-27T19:41:22.169Z,8.52
2017-08-27T19:43:52.740Z,5.03
2017-08-27T19:46:20.763Z,4.97
2017-08-27T19:48:48.610Z,4.43
2017-08-27T19:51:16.331Z,5.40
2017-08-27T19:53:44.084Z,6.90
2017-08-27T19:56:11.872Z,7.20
2017-08-27T19:58:39.647Z,5.35
2017-08-27T20:01:07.375Z,5.22
2017-08-27T20:03:35.113Z,5.12
2017-08-27T20:06:02.866Z,7.68
2017-08-27T20:08:30.610Z,5.40
2017-08-27T20:10:58.419Z,4.95
2017-08-27T20:13:26.637Z,4.97
2017-08-27T20:15:54.377Z,10.13
2017-08-27T20:18:22.133Z,12.95
2017-08-27T20:20:49.860Z,4.97
2017-08-27T20:23:17.639Z,5.68
2017-08-27T20:25:45.367Z,5.97
2017-08-27T20:28:13.104Z,6.07
2017-08-27T20:30:40.877Z,4.90
2017-08-27T20:33:08.608Z,5.22
2017-08-27T20:35:36.388Z,6.90
2017-08-27T20:38:04.111Z,4.47
2017-08-27T20:40:31.857Z,6.35
2017-08-27T20:42:59.638Z,4.60
2017-08-27T20:45:27.371Z,5.03
2017-08-27T20:47:55.152Z,5.85
2017-08-27T20:50:22.875Z,3.92
2017-08-27T20:52:50.602Z,5.62
2017-08-27T20:55:18.391Z,4.55
2017-08-27T20:57:46.172Z,4.32
2017-08-27T21:00:15.005Z,6.45
2017-08-27T21:02:42.729Z,5.90
2017-08-27T21:05:10.461Z,4.75
2017-08-27T21:07:38.218Z,4.85
2017-08-27T21:10:05.976Z,4.95
2017-08-27T21:12:33.838Z,4.97
2017-08-27T21:15:02.070Z,5.70
2017-08-27T21:17:29.892Z,4.50
2017-08-27T21:19:57.655Z,5.95
2017-08-27T21:22:25.385Z,7.55
2017-08-27T21:24:53.182Z,4.80
2017-08-27T21:27:20.903Z,5.85
2017-08-27T21:29:48.644Z,4.90
2017-08-27T21:32:16.410Z,5.00
2017-08-27T21:34:44.269Z,7.25
2017-08-27T21:37:12.056Z,5.53
2017-08-27T21:39:39.780Z,5.62
2017-08-27T21:42:07.504Z,5.57
2017-08-27T21:44:35.260Z,5.03
2017-08-27T21:47:02.996Z,6.43
2017-08-27T21:49:30.781Z,5.00
2017-08-27T21:51:58.508Z,7.07
2017-08-27T21:54:26.237Z,5.97
2017-08-27T21:56:53.988Z,4.87
2017-08-27T21:59:21.724Z,5.78
2017-08-27T22:01:49.504Z,5.85
2017-08-27T22:04:17.264Z,6.35
2017-08-27T22:06:45.034Z,5.70
2017-08-27T22:09:12.801Z,5.57
2017-08-27T22:11:40.527Z,6.00
2017-08-27T22:14:08.308Z,6.47
2017-08-27T22:16:36.032Z,6.70
2017-08-27T22:19:03.761Z,6.15
2017-08-27T22:21:31.525Z,6.15
2017-08-27T22:23:59.259Z,7.53
2017-08-27T22:26:27.062Z,6.60
2017-08-27T22:28:54.782Z,6.05
2017-08-27T22:31:22.512Z,6.43
2017-08-27T22:33:50.291Z,7.18
2017-08-27T22:36:18.028Z,6.68
2017-08-27T22:38:45.811Z,8.32
2017-08-27T22:41:13.535Z,7.50
2017-08-27T22:43:41.305Z,7.35
2017-08-27T22:46:09.060Z,8.70
2017-08-27T22:48:36.787Z,7.40
2017-08-27T22:51:04.570Z,8.43
2017-08-27T22:53:32.335Z,7.55
2017-08-27T22:56:00.071Z,7.85
2017-08-27T22:58:27.969Z,8.23
2017-08-27T23:00:55.736Z,7.85
2017-08-27T23:03:23.537Z,7.30
2017-08-27T23:05:51.262Z,7.25
2017-08-27T23:08:18.992Z,6.90
2017-08-27T23:10:46.755Z,8.90
2017-08-27T23:13:14.516Z,8.02
2017-08-27T23:15:42.300Z,8.10
2017-08-27T23:18:10.034Z,7.57
2017-08-27T23:20:37.806Z,6.97
2017-08-27T23:23:05.579Z,5.70
2017-08-27T23:25:33.311Z,7.90
2017-08-27T23:28:01.097Z,7.20
2017-08-27T23:30:28.819Z,5.72
2017-08-27T23:32:56.545Z,7.10
2017-08-27T23:35:24.304Z,6.90
2017-08-27T23:37:52.029Z,5.68
2017-08-27T23:40:19.814Z,6.85
2017-08-27T23:42:47.544Z,7.50
2017-08-27T23:45:15.271Z,7.80
2017-08-27T23:47:43.032Z,8.00
2017-08-27T23:50:10.760Z,8.60
2017-08-27T23:52:38.545Z,7.53
2017-08-27T23:55:06.272Z,7.30
2017-08-27T23:57:34.043Z,8.10
